createdAt,value
2018-01-29T00:02:01.856Z,101737.23
2018-01-29T00:04:29.366Z,101733.52
2018-01-29T00:06:56.904Z,101745.16
2018-01-29T00:09:24.409Z,101732.80
2018-01-29T00:11:51.904Z,101737.28
2018-01-29T00:14:19.407Z,101731.87
2018-01-29T00:16:46.937Z,101733.41
2018-01-29T00:19:14.457Z,101721.23
2018-01-29T00:21:41.980Z,101722.58
2018-01-29T00:24:09.504Z,101725.59
2018-01-29T00:26:37.000Z,101719.39
2018-01-29T00:29:04.504Z,101723.88
2018-01-29T00:31:32.123Z,101707.84
2018-01-29T00:33:59.621Z,101713.06
2018-01-29T00:36:27.117Z,101715.47
2018-01-29T00:38:54.628Z,101714.53
2018-01-29T00:41:22.141Z,101719.84
2018-01-29T00:43:49.660Z,101712.47
2018-01-29T00:46:17.156Z,101715.59
2018-01-29T00:48:44.689Z,101710.94
2018-01-29T00:51:12.260Z,101710.95
2018-01-29T00:53:39.840Z,101710.53
2018-01-29T00:56:07.369Z,101713.77
2018-01-29T00:58:35.592Z,101718.25
2018-01-29T01:01:03.143Z,101712.54
2018-01-29T01:03:30.710Z,101720.55
2018-01-29T01:05:58.233Z,101719.72
2018-01-29T01:08:25.764Z,101723.78
2018-01-29T01:10:53.327Z,101730.89
2018-01-29T01:13:20.912Z,101720.59
2018-01-29T01:15:48.459Z,101725.90
2018-01-29T01:18:16.012Z,101723.61
2018-01-29T01:20:43.543Z,101723.30
2018-01-29T01:23:11.079Z,101720.30
2018-01-29T01:25:38.607Z,101724.14
2018-01-29T01:28:11.140Z,101723.73
2018-01-29T01:30:38.654Z,101721.44
2018-01-29T01:33:06.225Z,101718.42
2018-01-29T01:35:33.766Z,101722.17
2018-01-29T01:38:01.313Z,101715.60
2018-01-29T01:40:28.871Z,101716.66
2018-01-29T01:42:56.423Z,101715.00
2018-01-29T01:45:23.973Z,101711.66
2018-01-29T01:47:51.550Z,101714.30
2018-01-29T01:50:19.087Z,101708.36
2018-01-29T01:52:46.642Z,101708.70
2018-01-29T01:55:14.203Z,101708.41
2018-01-29T01:57:41.731Z,101712.46
2018-01-29T02:00:09.262Z,101706.22
2018-01-29T02:02:36.901Z,101700.58
2018-01-29T02:05:04.447Z,101702.27
2018-01-29T02:07:31.993Z,101702.35
2018-01-29T02:09:59.539Z,101690.09
2018-01-29T02:12:27.077Z,101687.05
2018-01-29T02:14:54.591Z,101691.94
2018-01-29T02:17:22.140Z,101693.81
2018-01-29T02:19:49.665Z,101696.11
2018-01-29T02:22:17.234Z,101693.09
2018-01-29T02:24:44.758Z,101692.46
2018-01-29T02:27:12.298Z,101693.29
2018-01-29T02:29:39.848Z,101689.75
2018-01-29T02:32:07.341Z,101674.45
2018-01-29T02:34:34.836Z,101676.63
2018-01-29T02:37:02.352Z,101679.97
2018-01-29T02:39:29.868Z,101680.05
2018-01-29T02:41:57.364Z,101674.03
2018-01-29T02:44:24.892Z,101668.27
2018-01-29T02:46:52.392Z,101666.92
2018-01-29T02:49:19.949Z,101670.16
2018-01-29T02:51:47.471Z,101665.91
2018-01-29T02:54:14.998Z,101662.56
2018-01-29T02:56:42.536Z,101647.67
2018-01-29T02:59:10.057Z,101650.80
2018-01-29T03:01:37.557Z,101652.15
2018-01-29T03:04:05.075Z,101651.95
2018-01-29T03:06:32.572Z,101652.19
2018-01-29T03:09:00.069Z,101648.31
2018-01-29T03:11:27.607Z,101638.53
2018-01-29T03:13:55.153Z,101654.14
2018-01-29T03:16:22.812Z,101649.47
2018-01-29T03:18:50.349Z,101642.59
2018-01-29T03:21:17.904Z,101643.84
2018-01-29T03:23:45.569Z,101638.01
2018-01-29T03:26:13.081Z,101635.19
2018-01-29T03:28:40.646Z,101636.05
2018-01-29T03:31:08.245Z,101634.59
2018-01-29T03:33:35.761Z,101628.68
2018-01-29T03:36:03.276Z,101631.39
2018-01-29T03:38:30.782Z,101628.45
2018-01-29T03:40:58.280Z,101627.63
2018-01-29T03:43:25.809Z,101628.80
2018-01-29T03:45:53.327Z,101618.45
2018-01-29T03:48:20.829Z,101621.39
2018-01-29T03:50:48.424Z,101617.85
2018-01-29T03:53:16.904Z,101619.95
2018-01-29T03:55:44.462Z,101619.02
2018-01-29T03:58:12.042Z,101614.02
2018-01-29T04:00:40.299Z,101612.13
2018-01-29T04:03:07.831Z,101607.05
2018-01-29T04:05:35.405Z,101611.30
2018-01-29T04:08:02.931Z,101604.53
2018-01-29T04:10:30.490Z,101599.64
2018-01-29T04:12:58.057Z,101597.16
2018-01-29T04:15:25.597Z,101605.06
2018-01-29T04:17:53.190Z,101604.04
2018-01-29T04:20:20.730Z,101594.03
2018-01-29T04:22:48.250Z,101597.68
2018-01-29T04:25:16.020Z,101605.28
2018-01-29T04:27:43.545Z,101604.34
2018-01-29T04:30:11.098Z,101598.84
2018-01-29T04:32:38.891Z,101594.14
2018-01-29T04:35:06.435Z,101591.44
2018-01-29T04:37:33.956Z,101580.93
2018-01-29T04:40:01.533Z,101582.17
2018-01-29T04:42:29.079Z,101578.33
2018-01-29T04:44:56.598Z,101581.34
2018-01-29T04:47:24.175Z,101577.61
2018-01-29T04:49:51.744Z,101577.72
2018-01-29T04:52:19.267Z,101568.66
2018-01-29T04:54:51.763Z,101577.22
2018-01-29T04:57:19.326Z,101583.47
2018-01-29T04:59:46.853Z,101569.06
2018-01-29T05:02:14.617Z,101574.18
2018-01-29T05:04:42.158Z,101576.14
2018-01-29T05:07:09.683Z,101565.42
2018-01-29T05:09:37.230Z,101560.53
2018-01-29T05:12:04.779Z,101562.70
2018-01-29T05:14:32.324Z,101557.81
2018-01-29T05:16:59.883Z,101553.75
2018-01-29T05:19:27.419Z,101551.87
2018-01-29T05:21:54.945Z,101554.25
2018-01-29T05:24:22.478Z,101554.47
2018-01-29T05:26:50.007Z,101542.92
2018-01-29T05:29:17.572Z,101541.67
2018-01-29T05:31:45.150Z,101539.56
2018-01-29T05:34:12.706Z,101547.70
2018-01-29T05:39:47.957Z,101544.89
2018-01-29T05:42:15.527Z,101545.11
2018-01-29T05:44:43.085Z,101558.02
2018-01-29T05:47:10.606Z,101559.79
2018-01-29T05:49:38.162Z,101568.83
2018-01-29T05:52:05.734Z,101567.97
2018-01-29T05:54:33.292Z,101553.41
2018-01-29T05:57:00.834Z,101569.66
2018-01-29T05:59:28.398Z,101560.27
2018-01-29T06:01:55.983Z,101563.60
2018-01-29T06:04:23.521Z,101561.75
2018-01-29T06:06:51.078Z,101556.86
2018-01-29T06:09:18.620Z,101557.80
2018-01-29T06:11:46.227Z,101558.11
2018-01-29T06:14:13.757Z,101551.86
2018-01-29T06:16:41.302Z,101551.00
2018-01-29T06:19:08.905Z,101545.39
2018-01-29T06:21:36.451Z,101548.20
2018-01-29T06:24:03.960Z,101549.45
2018-01-29T06:26:31.583Z,101537.26
2018-01-29T06:28:59.129Z,101534.36
2018-01-29T06:31:26.668Z,101530.30
2018-01-29T06:33:54.192Z,101528.83
2018-01-29T06:36:21.815Z,101513.73
2018-01-29T06:38:49.341Z,101521.66
2018-01-29T06:41:16.860Z,101523.62
2018-01-29T06:43:44.391Z,101526.97
2018-01-29T06:46:11.941Z,101519.36
2018-01-29T06:48:39.512Z,101521.98
2018-01-29T06:51:07.056Z,101533.87
2018-01-29T06:53:34.573Z,101531.03
2018-01-29T06:56:02.076Z,101535.84
2018-01-29T06:58:29.627Z,101536.37
2018-01-29T07:00:57.174Z,101531.28
2018-01-29T07:03:24.680Z,101536.47
2018-01-29T07:05:52.228Z,101519.30
2018-01-29T07:08:19.782Z,101523.46
2018-01-29T07:10:47.332Z,101528.77
2018-01-29T07:13:14.905Z,101521.98
2018-01-29T07:15:42.749Z,101523.04
2018-01-29T07:18:10.245Z,101515.11
2018-01-29T07:20:37.761Z,101507.08
2018-01-29T07:23:05.309Z,101506.81
2018-01-29T07:25:32.799Z,101502.00
2018-01-29T07:28:00.366Z,101490.55
2018-01-29T07:30:27.913Z,101491.89
2018-01-29T07:32:55.467Z,101499.41
2018-01-29T07:35:22.961Z,101499.28
2018-01-29T07:37:50.496Z,101488.89
2018-01-29T07:40:18.029Z,101487.20
2018-01-29T07:42:45.529Z,101482.61
2018-01-29T07:45:13.093Z,101484.18
2018-01-29T07:47:40.646Z,101485.02
2018-01-29T07:50:08.177Z,101479.80
2018-01-29T07:52:35.705Z,101469.47
2018-01-29T07:55:03.262Z,101478.13
2018-01-29T07:57:30.764Z,101477.19
2018-01-29T07:59:58.261Z,101469.48
2018-01-29T08:02:25.887Z,101478.53
2018-01-29T08:04:53.404Z,101476.54
2018-01-29T08:07:21.031Z,101463.84
2018-01-29T08:12:16.062Z,101450.05
2018-01-29T08:14:43.560Z,101456.22
2018-01-29T08:17:11.165Z,101465.81
2018-01-29T08:19:38.690Z,101459.33
2018-01-29T08:22:06.190Z,101445.77
2018-01-29T08:24:33.702Z,101448.69
2018-01-29T08:27:01.245Z,101447.22
2018-01-29T08:29:28.812Z,101437.41
2018-01-29T08:31:56.322Z,101443.05
2018-01-29T08:34:23.855Z,101444.70
2018-01-29T08:36:51.417Z,101447.83
2018-01-29T08:39:18.941Z,101427.59
2018-01-29T08:41:46.469Z,101432.16
2018-01-29T08:44:14.004Z,101416.12
2018-01-29T08:46:41.525Z,101419.15
2018-01-29T08:49:09.046Z,101427.29
2018-01-29T08:51:36.665Z,101418.83
2018-01-29T08:54:04.244Z,101419.86
2018-01-29T08:56:31.756Z,101406.92
2018-01-29T08:58:59.301Z,101411.70
2018-01-29T09:01:26.865Z,101403.24
2018-01-29T09:03:54.401Z,101402.13
2018-01-29T09:06:21.914Z,101396.67
2018-01-29T09:08:49.453Z,101385.83
2018-01-29T09:11:17.031Z,101388.42
2018-01-29T09:13:44.533Z,101386.95
2018-01-29T09:16:12.057Z,101378.70
2018-01-29T09:18:39.581Z,101382.33
2018-01-29T09:21:07.199Z,101388.05
2018-01-29T09:23:34.861Z,101382.21
2018-01-29T09:26:02.365Z,101380.32
2018-01-29T09:28:30.009Z,101387.52
2018-01-29T09:30:57.524Z,101385.75
2018-01-29T09:33:25.191Z,101382.73
2018-01-29T09:35:52.761Z,101379.52
2018-01-29T09:38:20.304Z,101383.59
2018-01-29T09:40:47.883Z,101389.44
2018-01-29T09:43:15.449Z,101384.42
2018-01-29T09:45:42.961Z,101383.48
2018-01-29T09:48:10.477Z,101398.28
2018-01-29T09:50:38.001Z,101378.88
2018-01-29T09:53:05.536Z,101385.75
2018-01-29T09:55:33.093Z,101388.46
2018-01-29T09:58:00.629Z,101397.42
2018-01-29T10:00:28.161Z,101397.75
2018-01-29T10:02:55.802Z,101398.08
2018-01-29T10:05:23.330Z,101392.86
2018-01-29T10:07:50.852Z,101391.50
2018-01-29T10:10:18.379Z,101388.26
2018-01-29T10:12:45.897Z,101395.75
2018-01-29T10:15:13.532Z,101393.45
2018-01-29T10:17:41.054Z,101399.08
2018-01-29T10:20:08.557Z,101367.26
2018-01-29T10:22:36.097Z,101373.30
2018-01-29T10:25:03.621Z,101370.27
2018-01-29T10:27:31.208Z,101366.49
2018-01-29T10:29:58.741Z,101363.03
2018-01-29T10:32:26.264Z,101361.06
2018-01-29T10:34:53.802Z,101372.03
2018-01-29T10:37:21.322Z,101369.56
2018-01-29T10:39:48.913Z,101365.81
2018-01-29T10:42:16.421Z,101363.83
2018-01-29T10:44:44.021Z,101358.20
2018-01-29T10:47:11.553Z,101356.96
2018-01-29T10:49:39.134Z,101358.23
2018-01-29T10:52:06.693Z,101354.66
2018-01-29T10:54:34.219Z,101346.11
2018-01-29T10:57:01.770Z,101351.45
2018-01-29T10:59:29.332Z,101341.74
2018-01-29T11:02:02.758Z,101337.80
2018-01-29T11:04:30.265Z,101335.28
2018-01-29T11:06:57.765Z,101326.20
2018-01-29T11:09:25.285Z,101330.16
2018-01-29T11:11:52.818Z,101322.88
2018-01-29T11:14:20.574Z,101329.23
2018-01-29T11:16:48.101Z,101328.83
2018-01-29T11:19:15.628Z,101332.98
2018-01-29T11:21:43.260Z,101329.03
2018-01-29T11:24:10.768Z,101327.67
2018-01-29T11:26:38.311Z,101336.31
2018-01-29T11:29:05.936Z,101333.75
2018-01-29T11:31:33.479Z,101334.70
2018-01-29T11:34:01.072Z,101322.72
2018-01-29T11:36:28.596Z,101319.59
2018-01-29T11:38:56.109Z,101313.64
2018-01-29T11:41:23.673Z,101307.42
2018-01-29T11:43:51.241Z,101316.47
2018-01-29T11:46:18.749Z,101301.72
2018-01-29T11:48:46.261Z,101291.73
2018-01-29T11:51:13.985Z,101264.11
2018-01-29T11:53:41.516Z,101289.16
2018-01-29T11:56:09.021Z,101277.58
2018-01-29T11:58:36.586Z,101273.19
2018-01-29T12:01:04.109Z,101277.96
2018-01-29T12:03:31.666Z,101263.55
2018-01-29T12:05:59.231Z,101257.06
2018-01-29T12:08:26.730Z,101257.36
2018-01-29T12:10:54.303Z,101263.70
2018-01-29T12:13:21.829Z,101246.77
2018-01-29T12:15:49.329Z,101244.06
2018-01-29T12:18:16.830Z,101223.84
2018-01-29T12:20:44.403Z,101227.16
2018-01-29T12:23:11.970Z,101233.30
2018-01-29T12:25:39.496Z,101225.73
2018-01-29T12:28:07.011Z,101221.09
2018-01-29T12:30:34.546Z,101219.58
2018-01-29T12:33:02.041Z,101218.83
2018-01-29T12:35:29.729Z,101216.81
2018-01-29T12:37:57.229Z,101217.18
2018-01-29T12:40:24.728Z,101216.44
2018-01-29T12:42:52.264Z,101215.06
2018-01-29T12:45:19.789Z,101216.09
2018-01-29T12:47:47.293Z,101210.42
2018-01-29T12:50:14.924Z,101204.81
2018-01-29T12:52:42.452Z,101204.42
2018-01-29T12:55:10.068Z,101193.02
2018-01-29T12:57:37.603Z,101174.97
2018-01-29T13:00:05.113Z,101174.42
2018-01-29T13:02:32.677Z,101162.53
2018-01-29T13:05:00.181Z,101163.27
2018-01-29T13:07:27.696Z,101156.02
2018-01-29T13:09:55.313Z,101139.48
2018-01-29T13:12:22.822Z,101138.61
2018-01-29T13:14:50.340Z,101136.38
2018-01-29T13:17:17.873Z,101144.23
2018-01-29T13:19:45.429Z,101140.50
2018-01-29T13:22:13.282Z,101138.94
2018-01-29T13:24:40.815Z,101128.29
2018-01-29T13:27:08.345Z,101110.66
2018-01-29T13:29:35.905Z,101114.13
2018-01-29T13:32:03.412Z,101130.01
2018-01-29T13:34:31.009Z,101132.59
2018-01-29T13:36:58.541Z,101123.36
2018-01-29T13:39:26.113Z,101122.14
2018-01-29T13:41:53.672Z,101112.03
2018-01-29T13:44:21.219Z,101117.46
2018-01-29T13:46:48.746Z,101110.14
2018-01-29T13:49:16.274Z,101103.63
2018-01-29T13:51:43.797Z,101104.58
2018-01-29T13:54:11.321Z,101100.83
2018-01-29T13:56:38.826Z,101096.16
2018-01-29T13:59:06.396Z,101091.64
2018-01-29T14:01:33.893Z,101085.41
2018-01-29T14:04:01.610Z,101095.88
2018-01-29T14:06:29.137Z,101077.50
2018-01-29T14:08:56.633Z,101080.95
2018-01-29T14:11:24.196Z,101083.17
2018-01-29T14:13:51.701Z,101087.41
2018-01-29T14:16:19.222Z,101081.36
2018-01-29T14:18:46.786Z,101082.17
2018-01-29T14:21:14.317Z,101071.45
2018-01-29T14:23:41.822Z,101077.91
2018-01-29T14:26:09.360Z,101070.63
2018-01-29T14:28:36.888Z,101061.29
2018-01-29T14:31:04.462Z,101056.72
2018-01-29T14:33:32.036Z,101061.63
2018-01-29T14:35:59.537Z,101045.86
2018-01-29T14:38:27.050Z,101049.93
2018-01-29T14:40:54.585Z,101055.42
2018-01-29T14:43:22.133Z,101064.46
2018-01-29T14:45:49.636Z,101051.98
2018-01-29T14:48:17.368Z,101049.72
2018-01-29T14:50:44.904Z,101050.47
2018-01-29T14:53:12.456Z,101055.21
2018-01-29T14:55:39.966Z,101051.27
2018-01-29T14:58:07.490Z,101059.06
2018-01-29T15:00:35.022Z,101057.39
2018-01-29T15:03:02.566Z,101058.50
2018-01-29T15:05:30.148Z,101058.59
2018-01-29T15:07:57.651Z,101051.31
2018-01-29T15:10:25.162Z,101055.34
2018-01-29T15:12:52.706Z,101047.14
2018-01-29T15:15:20.445Z,101039.70
2018-01-29T15:17:48.012Z,101044.97
2018-01-29T15:20:15.514Z,101034.78
2018-01-29T15:22:43.045Z,101037.96
2018-01-29T15:25:10.562Z,101031.89
2018-01-29T15:27:38.093Z,101031.36
2018-01-29T15:30:05.643Z,101027.70
2018-01-29T15:32:33.169Z,101022.55
2018-01-29T15:35:00.721Z,101016.30
2018-01-29T15:37:28.242Z,101020.63
2018-01-29T15:39:55.766Z,101016.96
2018-01-29T15:42:23.509Z,101023.15
2018-01-29T15:44:51.041Z,101008.17
2018-01-29T15:47:18.568Z,101011.17
2018-01-29T15:49:46.091Z,101007.94
2018-01-29T15:52:13.615Z,101009.41
2018-01-29T15:54:41.159Z,101007.20
2018-01-29T15:57:08.677Z,101007.91
2018-01-29T15:59:36.192Z,100995.48
2018-01-29T16:02:03.721Z,100991.52
2018-01-29T16:04:31.238Z,100977.97
2018-01-29T16:06:58.759Z,100974.29
2018-01-29T16:09:26.468Z,100982.67
2018-01-29T16:11:53.965Z,100983.89
2018-01-29T16:14:21.571Z,100981.36
2018-01-29T16:16:49.184Z,100973.93
2018-01-29T16:19:16.678Z,100972.87
2018-01-29T16:21:44.260Z,100971.30
2018-01-29T16:24:11.792Z,100977.95
2018-01-29T16:26:39.312Z,100977.02
2018-01-29T16:29:06.953Z,100961.91
2018-01-29T16:31:34.525Z,100970.28
2018-01-29T16:34:02.050Z,100972.00
2018-01-29T16:36:29.593Z,100972.69
2018-01-29T16:38:57.107Z,100967.23
2018-01-29T16:41:24.615Z,100971.59
2018-01-29T16:43:52.154Z,100969.83
2018-01-29T16:46:19.750Z,100968.73
2018-01-29T16:48:47.273Z,100957.73
2018-01-29T16:51:14.813Z,100967.75
2018-01-29T16:53:42.380Z,100967.02
2018-01-29T16:56:09.899Z,100961.08
2018-01-29T16:58:37.422Z,100959.43
2018-01-29T17:01:05.006Z,100952.45
2018-01-29T17:03:32.663Z,100952.25
2018-01-29T17:06:00.186Z,100955.69
2018-01-29T17:08:27.688Z,100960.90
2018-01-29T17:10:55.253Z,100961.08
2018-01-29T17:13:22.757Z,100956.28
2018-01-29T17:15:50.286Z,100957.02
2018-01-29T17:18:17.937Z,100960.64
2018-01-29T17:20:45.468Z,100940.67
2018-01-29T17:23:12.995Z,100937.23
2018-01-29T17:25:40.561Z,100931.73
2018-01-29T17:28:08.089Z,100936.02
2018-01-29T17:30:35.618Z,100929.49
2018-01-29T17:33:03.157Z,100930.13
2018-01-29T17:35:30.704Z,100928.69
2018-01-29T17:37:58.234Z,100917.55
2018-01-29T17:40:25.932Z,100915.48
2018-01-29T17:42:53.460Z,100908.11
2018-01-29T17:45:20.984Z,100918.19
2018-01-29T17:47:48.556Z,100913.63
2018-01-29T17:50:16.083Z,100911.13
2018-01-29T17:52:43.767Z,100907.61
2018-01-29T17:55:11.321Z,100911.66
2018-01-29T17:57:38.902Z,100900.42
2018-01-29T18:00:06.432Z,100892.73
2018-01-29T18:02:33.961Z,100896.67
2018-01-29T18:05:01.476Z,100900.42
2018-01-29T18:07:28.998Z,100893.25
2018-01-29T18:09:56.541Z,100886.41
2018-01-29T18:12:24.044Z,100892.20
2018-01-29T18:14:51.595Z,100883.70
2018-01-29T18:17:19.159Z,100880.79
2018-01-29T18:19:46.656Z,100879.88
2018-01-29T18:22:14.176Z,100864.06
2018-01-29T18:24:41.721Z,100876.67
2018-01-29T18:27:09.225Z,100880.73
2018-01-29T18:29:36.732Z,100866.06
2018-01-29T18:32:04.328Z,100868.66
2018-01-29T18:34:31.838Z,100867.62
2018-01-29T18:36:59.385Z,100873.76
2018-01-29T18:39:26.898Z,100865.80
2018-01-29T18:41:54.650Z,100875.56
2018-01-29T18:44:22.200Z,100871.63
2018-01-29T18:46:49.712Z,100873.44
2018-01-29T18:49:17.264Z,100874.28
2018-01-29T18:51:44.797Z,100887.48
2018-01-29T18:54:12.352Z,100877.52
2018-01-29T18:56:39.905Z,100874.61
2018-01-29T18:59:07.448Z,100885.42
2018-01-29T19:01:35.008Z,100885.52
2018-01-29T19:04:02.854Z,100876.66
2018-01-29T19:06:30.361Z,100869.71
2018-01-29T19:08:57.868Z,100863.69
2018-01-29T19:11:25.428Z,100858.91
2018-01-29T19:13:52.957Z,100862.13
2018-01-29T19:16:20.461Z,100857.55
2018-01-29T19:18:48.057Z,100856.82
2018-01-29T19:21:15.570Z,100858.58
2018-01-29T19:23:43.082Z,100856.30
2018-01-29T19:26:10.624Z,100850.09
2018-01-29T19:28:38.145Z,100853.31
2018-01-29T19:31:05.677Z,100851.66
2018-01-29T19:33:33.202Z,100856.30
2018-01-29T19:36:00.729Z,100855.08
2018-01-29T19:38:28.245Z,100854.47
2018-01-29T19:40:55.746Z,100849.16
2018-01-29T19:43:23.260Z,100849.07
2018-01-29T19:45:50.776Z,100850.01
2018-01-29T19:48:18.315Z,100849.80
2018-01-29T19:50:45.862Z,100847.27
2018-01-29T19:53:13.382Z,100842.09
2018-01-29T19:55:40.945Z,100850.20
2018-01-29T19:58:08.512Z,100858.39
2018-01-29T20:00:36.054Z,100859.86
2018-01-29T20:03:03.560Z,100860.17
2018-01-29T20:05:31.144Z,100864.23
2018-01-29T20:07:58.668Z,100867.26
2018-01-29T20:10:26.204Z,100867.77
2018-01-29T20:12:53.718Z,100859.77
2018-01-29T20:15:21.322Z,100886.28
2018-01-29T20:17:48.864Z,100883.70
2018-01-29T20:20:16.383Z,100872.06
2018-01-29T20:22:43.929Z,100907.29
2018-01-29T20:25:11.423Z,100915.98
2018-01-29T20:27:38.945Z,100918.37
2018-01-29T20:30:06.459Z,100926.16
2018-01-29T20:32:34.117Z,100928.30
2018-01-29T20:35:01.669Z,100929.60
2018-01-29T20:37:29.243Z,100940.22
2018-01-29T20:39:56.753Z,100941.09
2018-01-29T20:42:24.273Z,100944.91
2018-01-29T20:44:51.830Z,100945.91
2018-01-29T20:47:19.325Z,100967.24
2018-01-29T20:49:46.826Z,100974.77
2018-01-29T20:52:14.373Z,100964.69
2018-01-29T20:54:41.913Z,100972.66
2018-01-29T20:57:09.454Z,100981.66
2018-01-29T20:59:37.013Z,100985.28
2018-01-29T21:02:04.527Z,100991.03
2018-01-29T21:04:32.031Z,101002.74
2018-01-29T21:06:59.550Z,101011.72
2018-01-29T21:09:27.083Z,101014.92
2018-01-29T21:11:54.612Z,101015.41
2018-01-29T21:14:22.122Z,101018.80
2018-01-29T21:16:49.661Z,101025.73
2018-01-29T21:19:17.197Z,101034.41
2018-01-29T21:21:44.723Z,101030.84
2018-01-29T21:24:12.250Z,101027.91
2018-01-29T21:26:39.814Z,101041.41
2018-01-29T21:29:07.374Z,101050.48
2018-01-29T21:31:34.881Z,101051.09
2018-01-29T21:34:02.998Z,101052.87
2018-01-29T21:36:30.566Z,101054.23
2018-01-29T21:38:58.081Z,101052.59
2018-01-29T21:41:25.705Z,101057.52
2018-01-29T21:43:53.257Z,101078.78
2018-01-29T21:46:20.763Z,101074.40
2018-01-29T21:48:48.281Z,101080.02
2018-01-29T21:51:15.808Z,101083.12
2018-01-29T21:53:43.378Z,101107.19
2018-01-29T21:56:10.904Z,101082.64
2018-01-29T21:58:38.401Z,101093.00
2018-01-29T22:01:05.974Z,101105.42
2018-01-29T22:03:33.528Z,101108.64
2018-01-29T22:06:01.060Z,101112.37
2018-01-29T22:08:28.564Z,101128.94
2018-01-29T22:10:56.077Z,101141.08
2018-01-29T22:13:23.753Z,101145.53
2018-01-29T22:15:51.313Z,101138.67
2018-01-29T22:18:18.820Z,101150.84
2018-01-29T22:20:46.364Z,101161.44
2018-01-29T22:23:13.908Z,101163.09
2018-01-29T22:25:41.463Z,101156.07
2018-01-29T22:28:08.999Z,101160.50
2018-01-29T22:30:36.507Z,101172.56
2018-01-29T22:33:04.014Z,101172.98
2018-01-29T22:35:31.825Z,101163.03
2018-01-29T22:37:59.355Z,101178.08
2018-01-29T22:40:26.923Z,101183.11
2018-01-29T22:42:54.434Z,101196.95
2018-01-29T22:45:21.990Z,101195.72
2018-01-29T22:47:49.493Z,101184.58
2018-01-29T22:50:17.002Z,101206.41
2018-01-29T22:52:44.531Z,101208.27
2018-01-29T22:55:12.080Z,101208.84
2018-01-29T22:57:39.657Z,101224.77
2018-01-29T23:00:07.409Z,101227.09
2018-01-29T23:02:34.938Z,101227.54
2018-01-29T23:05:02.509Z,101242.76
2018-01-29T23:07:30.096Z,101235.89
2018-01-29T23:09:57.653Z,101257.53
2018-01-29T23:12:25.238Z,101261.43
2018-01-29T23:14:52.745Z,101256.05
2018-01-29T23:17:20.240Z,101265.68
2018-01-29T23:19:47.873Z,101265.16
2018-01-29T23:22:15.373Z,101268.13
2018-01-29T23:24:42.903Z,101273.00
2018-01-29T23:27:10.397Z,101285.90
2018-01-29T23:29:37.904Z,101284.97
2018-01-29T23:32:05.397Z,101289.31
2018-01-29T23:34:32.947Z,101278.95
2018-01-29T23:37:00.478Z,101286.47
2018-01-29T23:39:27.973Z,101285.92
2018-01-29T23:41:55.521Z,101286.60
2018-01-29T23:44:23.021Z,101282.81
2018-01-29T23:46:50.617Z,101288.58
2018-01-29T23:49:18.136Z,101301.23
2018-01-29T23:51:45.656Z,101307.86
2018-01-29T23:54:17.017Z,101300.06
2018-01-29T23:56:44.536Z,101308.78
